createdAt,value
2017-04-10T00:00:08.584Z,21.98
2017-04-10T00:00:36.875Z,21.97
2017-04-10T00:01:05.215Z,21.97
2017-04-10T00:01:33.511Z,21.98
2017-04-10T00:02:01.675Z,21.98
2017-04-10T00:02:30.054Z,21.91
2017-04-10T00:02:58.239Z,22
2017-04-10T00:03:26.592Z,21.94
2017-04-10T00:03:54.946Z,21.96
2017-04-10T00:05:06.246Z,22.01
2017-04-10T00:05:34.534Z,21.9
2017-04-10T00:06:02.917Z,21.85
2017-04-10T00:06:31.107Z,21.84
2017-04-10T00:06:59.372Z,21.9
2017-04-10T00:07:27.765Z,21.85
2017-04-10T00:07:56.116Z,21.84
2017-04-10T00:08:24.393Z,21.91
2017-04-10T00:08:52.691Z,21.93
2017-04-10T00:09:20.864Z,21.85
2017-04-10T00:09:49.141Z,21.85
2017-04-10T00:11:00.443Z,21.93
2017-04-10T00:11:28.552Z,21.94
2017-04-10T00:11:56.942Z,21.94
2017-04-10T00:12:25.246Z,21.94
2017-04-10T00:12:53.495Z,21.94
2017-04-10T00:13:21.885Z,21.94
2017-04-10T00:13:50.145Z,21.97
2017-04-10T00:14:18.517Z,21.97
2017-04-10T00:14:46.794Z,21.96
2017-04-10T00:15:15.053Z,22
2017-04-10T00:15:43.512Z,21.98
2017-04-10T00:16:54.910Z,21.97
2017-04-10T00:17:23.196Z,22
2017-04-10T00:17:51.492Z,21.97
2017-04-10T00:18:19.886Z,21.97
2017-04-10T00:18:48.250Z,21.96
2017-04-10T00:19:16.547Z,21.91
2017-04-10T00:19:44.807Z,21.93
2017-04-10T00:20:13.085Z,21.98
2017-04-10T00:20:41.270Z,22
2017-04-10T00:21:09.590Z,21.98
2017-04-10T00:21:38.019Z,21.94
2017-04-10T00:22:49.230Z,21.94
2017-04-10T00:23:17.615Z,21.96
2017-04-10T00:23:46.007Z,21.98
2017-04-10T00:24:14.319Z,22.03
2017-04-10T00:24:42.573Z,21.97
2017-04-10T00:25:10.869Z,21.93
2017-04-10T00:25:39.130Z,21.94
2017-04-10T00:26:07.499Z,22.03
2017-04-10T00:26:35.873Z,21.97
2017-04-10T00:27:04.226Z,21.96
2017-04-10T00:27:32.698Z,22
2017-04-10T00:28:44.002Z,21.98
2017-04-10T00:29:12.375Z,22.04
2017-04-10T00:29:40.668Z,22.01
2017-04-10T00:30:08.957Z,22.06
2017-04-10T00:30:37.214Z,22.07
2017-04-10T00:31:05.416Z,22.03
2017-04-10T00:31:33.670Z,22.04
2017-04-10T00:32:02.044Z,22.07
2017-04-10T00:32:30.239Z,22.03
2017-04-10T00:32:58.572Z,22.03
2017-04-10T00:33:26.943Z,22.07
2017-04-10T00:34:38.338Z,22.03
2017-04-10T00:35:06.720Z,22.13
2017-04-10T00:35:35.125Z,22.07
2017-04-10T00:36:03.493Z,22.15
2017-04-10T00:36:32.044Z,22.09
2017-04-10T00:37:00.341Z,22.18
2017-04-10T00:37:28.511Z,22.15
2017-04-10T00:37:56.698Z,22.19
2017-04-10T00:38:24.976Z,22.15
2017-04-10T00:38:53.344Z,22.15
2017-04-10T00:39:21.804Z,22.19
2017-04-10T00:40:33.106Z,22.18
2017-04-10T00:41:01.303Z,22.19
2017-04-10T00:41:29.593Z,22.19
2017-04-10T00:41:57.868Z,22.18
2017-04-10T00:42:26.116Z,22.13
2017-04-10T00:42:54.413Z,22.15
2017-04-10T00:43:22.591Z,22.18
2017-04-10T00:43:50.769Z,22.16
2017-04-10T00:44:19.158Z,22.22
2017-04-10T00:44:47.512Z,22.21
2017-04-10T00:45:15.957Z,22.28
2017-04-10T00:46:27.347Z,22.16
2017-04-10T00:46:55.645Z,22.18
2017-04-10T00:47:24.031Z,22.18
2017-04-10T00:47:52.444Z,22.13
2017-04-10T00:48:20.696Z,22.15
2017-04-10T00:48:48.994Z,22.16
2017-04-10T00:49:17.253Z,22.12
2017-04-10T00:49:45.569Z,22.15
2017-04-10T00:50:13.849Z,22.13
2017-04-10T00:50:42.115Z,22.15
2017-04-10T00:51:10.872Z,22.25
2017-04-10T00:52:22.190Z,22.16
2017-04-10T00:52:50.575Z,22.22
2017-04-10T00:53:18.958Z,22.18
2017-04-10T00:53:47.266Z,22.21
2017-04-10T00:54:15.616Z,22.25
2017-04-10T00:54:44.009Z,22.22
2017-04-10T00:55:12.363Z,22.16
2017-04-10T00:55:40.640Z,22.16
2017-04-10T00:56:08.853Z,22.22
2017-04-10T00:56:37.599Z,22.27
2017-04-10T00:57:05.727Z,22.21
2017-04-10T00:58:17.024Z,22.23
2017-04-10T00:58:45.399Z,22.25
2017-04-10T00:59:13.687Z,22.3
2017-04-10T00:59:42.000Z,22.36
2017-04-10T01:00:10.272Z,22.27
2017-04-10T01:00:38.397Z,22.25
2017-04-10T01:01:06.371Z,22.28
2017-04-10T01:01:34.749Z,22.33
2017-04-10T01:02:03.115Z,22.3
2017-04-10T01:02:31.461Z,22.21
2017-04-10T01:02:59.910Z,22.3
2017-04-10T01:04:11.304Z,22.31
2017-04-10T01:04:39.591Z,22.19
2017-04-10T01:05:07.985Z,22.28
2017-04-10T01:05:36.492Z,22.3
2017-04-10T01:06:04.839Z,22.25
2017-04-10T01:06:33.044Z,22.28
2017-04-10T01:07:01.404Z,22.21
2017-04-10T01:07:29.776Z,22.18
2017-04-10T01:07:58.150Z,22.27
2017-04-10T01:08:26.406Z,22.3
2017-04-10T01:08:54.650Z,22.19
2017-04-10T01:10:06.054Z,22.25
2017-04-10T01:10:34.247Z,22.25
2017-04-10T01:11:02.635Z,22.18
2017-04-10T01:11:30.949Z,22.27
2017-04-10T01:11:59.293Z,22.22
2017-04-10T01:12:27.504Z,22.21
2017-04-10T01:12:55.855Z,22.18
2017-04-10T01:13:24.040Z,22.22
2017-04-10T01:13:52.408Z,22.22
2017-04-10T01:14:20.577Z,22.23
2017-04-10T01:14:49.005Z,22.22
2017-04-10T01:16:00.397Z,22.16
2017-04-10T01:16:28.682Z,22.18
2017-04-10T01:16:57.070Z,22.18
2017-04-10T01:17:25.368Z,22.18
2017-04-10T01:17:53.624Z,22.12
2017-04-10T01:18:21.929Z,22.04
2017-04-10T01:18:50.280Z,22.01
2017-04-10T01:19:18.558Z,22.07
2017-04-10T01:19:46.703Z,22
2017-04-10T01:20:15.019Z,22.01
2017-04-10T01:20:43.286Z,21.97
2017-04-10T01:21:54.755Z,21.81
2017-04-10T01:22:23.056Z,21.75
2017-04-10T01:22:51.349Z,21.75
2017-04-10T01:23:19.587Z,21.74
2017-04-10T01:23:47.845Z,21.77
2017-04-10T01:24:16.145Z,21.69
2017-04-10T01:24:44.405Z,21.73
2017-04-10T01:25:12.686Z,21.69
2017-04-10T01:25:41.056Z,21.74
2017-04-10T01:26:09.787Z,21.62
2017-04-10T01:26:38.153Z,21.67
2017-04-10T01:27:49.462Z,21.77
2017-04-10T01:28:17.745Z,21.69
2017-04-10T01:28:46.140Z,21.67
2017-04-10T01:29:14.324Z,21.67
2017-04-10T01:29:42.388Z,21.65
2017-04-10T01:30:10.497Z,21.58
2017-04-10T01:30:38.751Z,21.59
2017-04-10T01:31:06.838Z,21.45
2017-04-10T01:31:35.018Z,21.45
2017-04-10T01:32:03.379Z,21.45
2017-04-10T01:32:31.712Z,21.5
2017-04-10T01:33:43.099Z,21.45
2017-04-10T01:34:11.486Z,21.44
2017-04-10T01:34:39.874Z,21.44
2017-04-10T01:35:08.262Z,21.4
2017-04-10T01:35:36.520Z,21.38
2017-04-10T01:36:04.534Z,21.3
2017-04-10T01:36:32.792Z,21.29
2017-04-10T01:37:01.066Z,21.28
2017-04-10T01:37:29.442Z,21.29
2017-04-10T01:37:57.855Z,21.29
2017-04-10T01:38:26.174Z,21.29
2017-04-10T01:39:37.568Z,21.3
2017-04-10T01:40:05.854Z,21.2
2017-04-10T01:40:34.152Z,21.18
2017-04-10T01:41:02.563Z,21.26
2017-04-10T01:41:30.887Z,21.28
2017-04-10T01:41:59.187Z,21.25
2017-04-10T01:42:27.441Z,21.26
2017-04-10T01:42:55.709Z,21.26
2017-04-10T01:43:23.800Z,21.3
2017-04-10T01:43:52.204Z,21.32
2017-04-10T01:44:20.590Z,21.38
2017-04-10T01:45:31.919Z,21.37
2017-04-10T01:46:00.214Z,21.38
2017-04-10T01:46:28.507Z,21.37
2017-04-10T01:46:56.909Z,21.41
2017-04-10T01:47:25.254Z,21.4
2017-04-10T01:47:53.644Z,21.47
2017-04-10T01:48:21.990Z,21.38
2017-04-10T01:48:50.360Z,21.48
2017-04-10T01:49:18.734Z,21.41
2017-04-10T01:49:47.146Z,21.48
2017-04-10T01:50:15.528Z,21.41
2017-04-10T01:51:26.732Z,21.48
2017-04-10T01:51:54.838Z,21.47
2017-04-10T01:52:23.134Z,21.41
2017-04-10T01:52:51.514Z,21.48
2017-04-10T01:53:19.675Z,21.5
2017-04-10T01:53:47.969Z,21.48
2017-04-10T01:54:16.230Z,21.45
2017-04-10T01:54:44.596Z,21.48
2017-04-10T01:55:12.874Z,21.47
2017-04-10T01:55:41.193Z,21.48
2017-04-10T01:56:09.490Z,21.5
2017-04-10T01:57:21.360Z,21.45
2017-04-10T01:57:49.745Z,21.48
2017-04-10T01:58:18.127Z,21.5
2017-04-10T01:58:46.520Z,21.5
2017-04-10T01:59:14.770Z,21.45
2017-04-10T01:59:43.066Z,21.45
2017-04-10T02:00:11.232Z,21.48
2017-04-10T02:00:39.419Z,21.5
2017-04-10T02:01:07.696Z,21.48
2017-04-10T02:01:36.120Z,21.45
2017-04-10T02:02:04.320Z,21.51
2017-04-10T02:03:15.617Z,21.53
2017-04-10T02:03:43.900Z,21.47
2017-04-10T02:04:12.193Z,21.45
2017-04-10T02:04:40.471Z,21.5
2017-04-10T02:05:08.821Z,21.48
2017-04-10T02:05:37.117Z,21.5
2017-04-10T02:06:05.277Z,21.5
2017-04-10T02:06:33.641Z,21.47
2017-04-10T02:07:01.919Z,21.47
2017-04-10T02:07:30.174Z,21.45
2017-04-10T02:07:58.465Z,21.53
2017-04-10T02:09:09.764Z,21.45
2017-04-10T02:09:38.047Z,21.51
2017-04-10T02:10:06.436Z,21.47
2017-04-10T02:10:34.728Z,21.48
2017-04-10T02:11:02.981Z,21.44
2017-04-10T02:11:31.179Z,21.48
2017-04-10T02:11:59.525Z,21.45
2017-04-10T02:12:27.890Z,21.47
2017-04-10T02:12:56.250Z,21.47
2017-04-10T02:13:25.434Z,21.48
2017-04-10T02:13:53.812Z,21.58
2017-04-10T02:15:04.926Z,21.58
2017-04-10T02:15:33.209Z,21.56
2017-04-10T02:16:01.501Z,21.53
2017-04-10T02:16:29.801Z,21.51
2017-04-10T02:16:58.147Z,21.56
2017-04-10T02:17:26.441Z,21.53
2017-04-10T02:17:54.512Z,21.53
2017-04-10T02:18:22.790Z,21.58
2017-04-10T02:18:50.973Z,21.5
2017-04-10T02:19:19.426Z,21.5
2017-04-10T02:19:47.722Z,21.48
2017-04-10T02:20:59.116Z,21.58
2017-04-10T02:21:27.404Z,21.48
2017-04-10T02:21:55.701Z,21.58
2017-04-10T02:22:24.096Z,21.48
2017-04-10T02:22:52.254Z,21.48
2017-04-10T02:23:20.553Z,21.48
2017-04-10T02:23:48.814Z,21.45
2017-04-10T02:24:17.087Z,21.62
2017-04-10T02:24:45.363Z,21.47
2017-04-10T02:25:13.677Z,21.55
2017-04-10T02:25:42.051Z,21.63
2017-04-10T02:26:53.439Z,21.56
2017-04-10T02:27:21.818Z,21.53
2017-04-10T02:27:50.195Z,21.58
2017-04-10T02:28:18.468Z,21.56
2017-04-10T02:28:46.720Z,21.59
2017-04-10T02:29:15.024Z,21.56
2017-04-10T02:29:43.189Z,21.56
2017-04-10T02:30:11.479Z,21.59
2017-04-10T02:30:39.750Z,21.59
2017-04-10T02:31:08.193Z,21.53
2017-04-10T02:31:36.491Z,21.58
2017-04-10T02:32:47.788Z,21.67
2017-04-10T02:33:16.162Z,21.55
2017-04-10T02:33:44.546Z,21.58
2017-04-10T02:34:12.854Z,21.67
2017-04-10T02:34:41.009Z,21.67
2017-04-10T02:35:09.296Z,21.58
2017-04-10T02:35:37.641Z,21.69
2017-04-10T02:36:05.726Z,21.63
2017-04-10T02:36:33.907Z,21.63
2017-04-10T02:37:02.225Z,21.65
2017-04-10T02:37:30.511Z,21.69
2017-04-10T02:38:41.807Z,21.74
2017-04-10T02:39:10.185Z,21.73
2017-04-10T02:39:38.566Z,21.73
2017-04-10T02:40:06.970Z,21.59
2017-04-10T02:40:35.224Z,21.56
2017-04-10T02:41:03.428Z,21.71
2017-04-10T02:41:31.678Z,21.73
2017-04-10T02:41:59.864Z,21.73
2017-04-10T02:42:28.145Z,21.74
2017-04-10T02:42:56.588Z,21.74
2017-04-10T02:43:24.786Z,21.69
2017-04-10T02:44:36.089Z,21.8
2017-04-10T02:45:04.376Z,21.63
2017-04-10T02:45:32.664Z,21.74
2017-04-10T02:46:00.973Z,21.6
2017-04-10T02:46:29.130Z,21.77
2017-04-10T02:46:57.523Z,21.73
2017-04-10T02:47:25.871Z,21.71
2017-04-10T02:47:54.145Z,21.73
2017-04-10T02:48:22.424Z,21.73
2017-04-10T02:48:50.866Z,21.74
2017-04-10T02:49:19.242Z,21.59
2017-04-10T02:50:30.356Z,21.66
2017-04-10T02:50:58.644Z,21.69
2017-04-10T02:51:26.844Z,21.65
2017-04-10T02:51:55.139Z,21.67
2017-04-10T02:52:23.393Z,21.66
2017-04-10T02:52:51.687Z,21.75
2017-04-10T02:53:19.943Z,21.69
2017-04-10T02:53:48.314Z,21.67
2017-04-10T02:54:16.582Z,21.66
2017-04-10T02:54:44.934Z,21.75
2017-04-10T02:55:13.226Z,21.67
2017-04-10T02:56:24.617Z,21.63
2017-04-10T02:56:52.938Z,21.69
2017-04-10T02:57:21.228Z,21.74
2017-04-10T02:57:49.418Z,21.73
2017-04-10T02:58:17.666Z,21.62
2017-04-10T02:58:45.870Z,21.77
2017-04-10T02:59:14.040Z,21.67
2017-04-10T02:59:42.400Z,21.6
2017-04-10T03:00:10.582Z,21.6
2017-04-10T03:00:38.964Z,21.63
2017-04-10T03:01:07.343Z,21.77
2017-04-10T03:02:18.735Z,21.69
2017-04-10T03:02:47.020Z,21.8
2017-04-10T03:03:15.408Z,21.6
2017-04-10T03:03:43.691Z,21.71
2017-04-10T03:04:11.939Z,21.75
2017-04-10T03:04:40.237Z,21.63
2017-04-10T03:05:08.491Z,21.69
2017-04-10T03:05:36.857Z,21.71
2017-04-10T03:06:05.131Z,21.69
2017-04-10T03:06:33.479Z,21.62
2017-04-10T03:07:01.761Z,21.67
2017-04-10T03:08:13.151Z,21.63
2017-04-10T03:08:41.435Z,21.65
2017-04-10T03:09:09.815Z,21.62
2017-04-10T03:09:38.126Z,21.75
2017-04-10T03:10:06.396Z,21.63
2017-04-10T03:10:34.665Z,21.66
2017-04-10T03:11:02.923Z,21.65
2017-04-10T03:11:31.208Z,21.63
2017-04-10T03:11:59.488Z,21.67
2017-04-10T03:12:27.909Z,21.63
2017-04-10T03:12:56.106Z,21.67
2017-04-10T03:14:07.502Z,21.66
2017-04-10T03:14:35.886Z,21.69
2017-04-10T03:15:04.177Z,21.69
2017-04-10T03:15:32.377Z,21.63
2017-04-10T03:16:00.721Z,21.67
2017-04-10T03:16:28.918Z,21.51
2017-04-10T03:16:57.172Z,21.58
2017-04-10T03:17:25.261Z,21.6
2017-04-10T03:17:53.635Z,21.58
2017-04-10T03:18:21.962Z,21.62
2017-04-10T03:18:50.348Z,21.58
2017-04-10T03:20:01.649Z,21.55
2017-04-10T03:20:30.028Z,21.59
2017-04-10T03:20:58.229Z,21.55
2017-04-10T03:21:26.537Z,21.56
2017-04-10T03:21:54.879Z,21.62
2017-04-10T03:22:23.268Z,21.58
2017-04-10T03:22:51.435Z,21.58
2017-04-10T03:23:19.621Z,21.58
2017-04-10T03:23:47.992Z,21.58
2017-04-10T03:24:16.425Z,21.59
2017-04-10T03:24:44.715Z,21.65
2017-04-10T03:25:55.826Z,21.55
2017-04-10T03:26:23.931Z,21.59
2017-04-10T03:26:52.223Z,21.58
2017-04-10T03:27:20.618Z,21.6
2017-04-10T03:27:48.872Z,21.6
2017-04-10T03:28:17.264Z,21.62
2017-04-10T03:28:45.619Z,21.59
2017-04-10T03:29:13.895Z,21.59
2017-04-10T03:29:42.085Z,21.59
2017-04-10T03:30:10.422Z,21.63
2017-04-10T03:30:38.714Z,21.53
2017-04-10T03:31:49.919Z,21.43
2017-04-10T03:32:18.299Z,21.48
2017-04-10T03:32:46.590Z,21.48
2017-04-10T03:33:14.667Z,21.41
2017-04-10T03:33:42.923Z,21.45
2017-04-10T03:34:11.210Z,21.44
2017-04-10T03:34:39.460Z,21.41
2017-04-10T03:35:07.732Z,21.38
2017-04-10T03:35:35.916Z,21.32
2017-04-10T03:36:04.315Z,21.28
2017-04-10T03:36:32.602Z,21.28
2017-04-10T03:37:43.803Z,21.29
2017-04-10T03:38:12.090Z,21.25
2017-04-10T03:38:40.380Z,21.26
2017-04-10T03:39:08.645Z,21.23
2017-04-10T03:39:36.893Z,21.3
2017-04-10T03:40:05.194Z,21.3
2017-04-10T03:40:33.451Z,21.28
2017-04-10T03:41:01.818Z,21.25
2017-04-10T03:41:30.093Z,21.26
2017-04-10T03:41:58.429Z,21.2
2017-04-10T03:42:26.812Z,21.26
2017-04-10T03:43:38.013Z,21.2
2017-04-10T03:44:06.395Z,21.18
2017-04-10T03:44:34.684Z,21.16
2017-04-10T03:45:02.935Z,21.11
2017-04-10T03:45:31.188Z,21.14
2017-04-10T03:45:59.385Z,21.2
2017-04-10T03:46:27.543Z,21.16
2017-04-10T03:46:55.817Z,21.13
2017-04-10T03:47:23.998Z,21.16
2017-04-10T03:47:52.403Z,21.16
2017-04-10T03:48:20.685Z,21.1
2017-04-10T03:49:31.980Z,21.14
2017-04-10T03:50:00.356Z,21.14
2017-04-10T03:50:28.589Z,21.14
2017-04-10T03:50:56.909Z,21.19
2017-04-10T03:51:25.063Z,21.2
2017-04-10T03:51:53.265Z,21.18
2017-04-10T03:52:21.420Z,21.2
2017-04-10T03:52:49.599Z,21.22
2017-04-10T03:53:17.777Z,21.2
2017-04-10T03:53:46.165Z,21.26
2017-04-10T03:54:14.548Z,21.16
2017-04-10T03:55:25.854Z,21.26
2017-04-10T03:55:54.235Z,21.28
2017-04-10T03:56:22.338Z,21.29
2017-04-10T03:56:50.578Z,21.32
2017-04-10T03:57:18.919Z,21.23
2017-04-10T03:57:47.029Z,21.29
2017-04-10T03:58:15.193Z,21.26
2017-04-10T03:58:43.566Z,21.25
2017-04-10T03:59:11.746Z,21.34
2017-04-10T03:59:39.931Z,21.29
2017-04-10T04:00:08.311Z,21.3
2017-04-10T04:01:19.513Z,21.23
2017-04-10T04:01:47.611Z,21.2
2017-04-10T04:02:15.995Z,21.26
2017-04-10T04:02:44.310Z,21.19
2017-04-10T04:03:12.556Z,21.16
2017-04-10T04:03:40.854Z,21.19
2017-04-10T04:04:09.203Z,21.18
2017-04-10T04:04:37.480Z,21.14
2017-04-10T04:05:05.752Z,21.14
2017-04-10T04:05:34.117Z,21.19
2017-04-10T04:06:02.404Z,21.14
2017-04-10T04:07:13.820Z,21.19
2017-04-10T04:07:42.164Z,21.18
2017-04-10T04:08:10.451Z,21.14
2017-04-10T04:08:38.490Z,21.18
2017-04-10T04:09:06.739Z,21.16
2017-04-10T04:09:35.035Z,21.19
2017-04-10T04:10:03.101Z,21.19
2017-04-10T04:10:31.465Z,21.18
2017-04-10T04:10:59.732Z,21.18
2017-04-10T04:11:27.917Z,21.16
2017-04-10T04:11:56.212Z,21.26
2017-04-10T04:13:07.420Z,21.23
2017-04-10T04:13:35.612Z,21.18
2017-04-10T04:14:03.900Z,21.26
2017-04-10T04:14:32.127Z,21.25
2017-04-10T04:15:00.466Z,21.28
2017-04-10T04:15:28.663Z,21.2
2017-04-10T04:15:56.917Z,21.18
2017-04-10T04:16:25.281Z,21.26
2017-04-10T04:16:53.555Z,21.28
2017-04-10T04:17:21.924Z,21.16
2017-04-10T04:17:50.215Z,21.28
2017-04-10T04:19:01.510Z,21.3
2017-04-10T04:19:29.797Z,21.3
2017-04-10T04:19:58.082Z,21.26
2017-04-10T04:20:26.415Z,21.26
2017-04-10T04:20:54.573Z,21.29
2017-04-10T04:21:22.771Z,21.23
2017-04-10T04:21:51.121Z,21.28
2017-04-10T04:22:19.299Z,21.23
2017-04-10T04:22:47.661Z,21.29
2017-04-10T04:23:15.938Z,21.19
2017-04-10T04:23:44.224Z,21.29
2017-04-10T04:24:55.426Z,21.25
2017-04-10T04:25:23.531Z,21.29
2017-04-10T04:25:51.913Z,21.23
2017-04-10T04:26:20.143Z,21.23
2017-04-10T04:26:48.388Z,21.23
2017-04-10T04:27:16.717Z,21.23
2017-04-10T04:27:44.880Z,21.14
2017-04-10T04:28:13.155Z,21.2
2017-04-10T04:28:41.334Z,21.3
2017-04-10T04:29:09.604Z,21.19
2017-04-10T04:29:37.798Z,21.28
2017-04-10T04:30:49.002Z,21.25
2017-04-10T04:31:17.382Z,21.25
2017-04-10T04:31:45.576Z,21.25
2017-04-10T04:32:13.800Z,21.29
2017-04-10T04:32:41.955Z,21.23
2017-04-10T04:33:10.161Z,21.26
2017-04-10T04:33:38.314Z,21.28
2017-04-10T04:34:06.586Z,21.3
2017-04-10T04:34:34.953Z,21.19
2017-04-10T04:35:03.136Z,21.3
2017-04-10T04:35:31.513Z,21.29
2017-04-10T04:36:42.898Z,21.25
2017-04-10T04:37:11.179Z,21.29
2017-04-10T04:37:39.470Z,21.26
2017-04-10T04:38:07.610Z,21.26
2017-04-10T04:38:35.761Z,21.2
2017-04-10T04:39:04.053Z,21.28
2017-04-10T04:39:32.305Z,21.29
2017-04-10T04:40:00.486Z,21.26
2017-04-10T04:40:28.664Z,21.14
2017-04-10T04:40:56.845Z,21.23
2017-04-10T04:41:25.135Z,21.23
2017-04-10T04:42:36.429Z,21.29
2017-04-10T04:43:04.715Z,21.23
2017-04-10T04:43:33.042Z,21.23
2017-04-10T04:44:01.176Z,21.26
2017-04-10T04:44:29.426Z,21.28
2017-04-10T04:44:57.718Z,21.26
2017-04-10T04:45:25.971Z,21.25
2017-04-10T04:45:54.249Z,21.25
2017-04-10T04:46:22.430Z,21.28
2017-04-10T04:46:50.799Z,21.26
2017-04-10T04:47:19.214Z,21.19
2017-04-10T04:48:30.385Z,21.25
2017-04-10T04:48:58.663Z,21.2
2017-04-10T04:49:26.951Z,21.19
2017-04-10T04:49:55.083Z,21.22
2017-04-10T04:50:23.334Z,21.22
2017-04-10T04:50:51.533Z,21.26
2017-04-10T04:51:19.881Z,21.26
2017-04-10T04:51:48.150Z,21.18
2017-04-10T04:52:16.330Z,21.26
2017-04-10T04:52:44.603Z,21.14
2017-04-10T04:53:12.895Z,21.26
2017-04-10T04:54:24.103Z,21.25
2017-04-10T04:54:52.297Z,21.3
2017-04-10T04:55:20.681Z,21.3
2017-04-10T04:55:49.002Z,21.18
2017-04-10T04:56:17.163Z,21.29
2017-04-10T04:56:45.365Z,21.25
2017-04-10T04:57:13.526Z,21.3
2017-04-10T04:57:41.892Z,21.26
2017-04-10T04:58:10.160Z,21.28
2017-04-10T04:58:38.428Z,21.28
2017-04-10T04:59:06.715Z,21.25
2017-04-10T05:00:18.014Z,21.3
2017-04-10T05:00:46.208Z,21.3
2017-04-10T05:01:14.591Z,21.29
2017-04-10T05:01:42.724Z,21.37
2017-04-10T05:02:10.977Z,21.29
2017-04-10T05:02:39.360Z,21.32
2017-04-10T05:03:07.705Z,21.34
2017-04-10T05:03:35.979Z,21.37
2017-04-10T05:04:04.344Z,21.3
2017-04-10T05:04:32.615Z,21.37
2017-04-10T05:05:00.996Z,21.32
2017-04-10T05:06:12.389Z,21.3
2017-04-10T05:06:40.668Z,21.3
2017-04-10T05:07:08.957Z,21.3
2017-04-10T05:07:37.183Z,21.32
2017-04-10T05:08:05.433Z,21.37
2017-04-10T05:08:33.632Z,21.32
2017-04-10T05:09:01.976Z,21.4
2017-04-10T05:09:30.349Z,21.4
2017-04-10T05:09:58.524Z,21.4
2017-04-10T05:10:26.521Z,21.44
2017-04-10T05:10:54.899Z,21.43
2017-04-10T05:12:06.194Z,21.48
2017-04-10T05:12:34.480Z,21.44
2017-04-10T05:13:02.675Z,21.44
2017-04-10T05:13:30.903Z,21.45
2017-04-10T05:13:59.156Z,21.45
2017-04-10T05:14:27.356Z,21.43
2017-04-10T05:14:55.704Z,21.47
2017-04-10T05:15:23.978Z,21.43
2017-04-10T05:15:52.159Z,21.53
2017-04-10T05:16:20.523Z,21.5
2017-04-10T05:16:48.718Z,21.38
2017-04-10T05:17:59.917Z,21.47
2017-04-10T05:18:28.109Z,21.45
2017-04-10T05:18:56.490Z,21.44
2017-04-10T05:19:24.623Z,21.48
2017-04-10T05:19:52.781Z,21.47
2017-04-10T05:20:21.165Z,21.45
2017-04-10T05:20:49.511Z,21.48
2017-04-10T05:21:17.882Z,21.47
2017-04-10T05:21:46.152Z,21.43
2017-04-10T05:22:14.522Z,21.48
2017-04-10T05:22:42.904Z,21.45
2017-04-10T05:23:54.014Z,21.48
2017-04-10T05:24:22.393Z,21.5
2017-04-10T05:24:50.591Z,21.56
2017-04-10T05:25:18.818Z,21.5
2017-04-10T05:25:47.063Z,21.5
2017-04-10T05:26:15.359Z,21.44
2017-04-10T05:26:43.706Z,21.45
2017-04-10T05:27:11.883Z,21.48
2017-04-10T05:27:40.247Z,21.45
2017-04-10T05:28:08.523Z,21.45
2017-04-10T05:28:36.903Z,21.5
2017-04-10T05:29:48.101Z,21.5
2017-04-10T05:30:16.382Z,21.51
2017-04-10T05:30:44.673Z,21.47
2017-04-10T05:31:12.998Z,21.44
2017-04-10T05:31:41.248Z,21.5
2017-04-10T05:32:09.543Z,21.45
2017-04-10T05:32:37.799Z,21.45
2017-04-10T05:33:06.075Z,21.48
2017-04-10T05:33:34.349Z,21.47
2017-04-10T05:34:02.628Z,21.44
2017-04-10T05:34:30.911Z,21.51
2017-04-10T05:35:42.109Z,21.5
2017-04-10T05:36:10.392Z,21.5
2017-04-10T05:36:38.592Z,21.44
2017-04-10T05:37:06.912Z,21.5
2017-04-10T05:37:35.064Z,21.5
2017-04-10T05:38:03.355Z,21.5
2017-04-10T05:38:31.700Z,21.51
2017-04-10T05:38:59.977Z,21.45
2017-04-10T05:39:28.336Z,21.44
2017-04-10T05:39:56.525Z,21.47
2017-04-10T05:40:24.811Z,21.5
2017-04-10T05:41:36.204Z,21.5
2017-04-10T05:42:04.491Z,21.48
2017-04-10T05:42:32.686Z,21.48
2017-04-10T05:43:01.010Z,21.47
2017-04-10T05:43:29.256Z,21.41
2017-04-10T05:43:57.547Z,21.44
2017-04-10T05:44:25.894Z,21.45
2017-04-10T05:44:53.897Z,21.44
2017-04-10T05:45:22.163Z,21.41
2017-04-10T05:45:50.438Z,21.45
2017-04-10T05:46:18.821Z,21.45
2017-04-10T05:47:30.207Z,21.53
2017-04-10T05:47:58.585Z,21.44
2017-04-10T05:48:26.875Z,21.38
2017-04-10T05:48:55.014Z,21.47
2017-04-10T05:49:23.260Z,21.48
2017-04-10T05:49:51.646Z,21.41
2017-04-10T05:50:19.810Z,21.43
2017-04-10T05:50:48.176Z,21.5
2017-04-10T05:51:16.541Z,21.43
2017-04-10T05:51:44.722Z,21.44
2017-04-10T05:52:12.819Z,21.51
2017-04-10T05:53:24.116Z,21.48
2017-04-10T05:53:52.400Z,21.53
2017-04-10T05:54:20.784Z,21.44
2017-04-10T05:54:49.111Z,21.43
2017-04-10T05:55:17.361Z,21.53
2017-04-10T05:55:45.654Z,21.45
2017-04-10T05:56:13.716Z,21.51
2017-04-10T05:56:41.990Z,21.45
2017-04-10T05:57:10.255Z,21.45
2017-04-10T05:57:38.345Z,21.51
2017-04-10T05:58:06.539Z,21.51
2017-04-10T05:59:17.839Z,21.48
2017-04-10T05:59:46.127Z,21.51
2017-04-10T06:00:14.416Z,21.47
2017-04-10T06:00:42.453Z,21.48
2017-04-10T06:01:10.700Z,21.41
2017-04-10T06:01:38.909Z,21.56
2017-04-10T06:02:07.161Z,21.55
2017-04-10T06:02:35.335Z,21.45
2017-04-10T06:03:03.608Z,21.41
2017-04-10T06:03:31.981Z,21.53
2017-04-10T06:04:00.269Z,21.55
2017-04-10T06:05:11.569Z,21.55
2017-04-10T06:05:39.946Z,21.47
2017-04-10T06:06:08.327Z,21.47
2017-04-10T06:06:36.553Z,21.55
2017-04-10T06:07:04.705Z,21.53
2017-04-10T06:07:33.001Z,21.53
2017-04-10T06:08:01.162Z,21.45
2017-04-10T06:08:29.257Z,21.58
2017-04-10T06:08:57.440Z,21.53
2017-04-10T06:09:25.708Z,21.5
2017-04-10T06:09:54.092Z,21.53
2017-04-10T06:11:05.389Z,21.56
2017-04-10T06:11:33.584Z,21.59
2017-04-10T06:12:01.873Z,21.5
2017-04-10T06:12:30.005Z,21.53
2017-04-10T06:12:58.163Z,21.59
2017-04-10T06:13:26.460Z,21.59
2017-04-10T06:13:54.620Z,21.56
2017-04-10T06:14:23.437Z,21.56
2017-04-10T06:14:51.615Z,21.56
2017-04-10T06:15:19.796Z,21.51
2017-04-10T06:15:48.178Z,21.51
2017-04-10T06:16:59.483Z,21.51
2017-04-10T06:17:27.679Z,21.55
2017-04-10T06:17:56.060Z,21.53
2017-04-10T06:18:24.107Z,21.51
2017-04-10T06:18:52.360Z,21.53
2017-04-10T06:19:20.644Z,21.58
2017-04-10T06:19:48.990Z,21.5
2017-04-10T06:20:17.077Z,21.5
2017-04-10T06:20:45.350Z,21.56
2017-04-10T06:21:13.537Z,21.5
2017-04-10T06:21:41.910Z,21.48
2017-04-10T06:22:53.298Z,21.47
2017-04-10T06:23:21.671Z,21.53
2017-04-10T06:23:49.865Z,21.48
2017-04-10T06:24:18.098Z,21.55
2017-04-10T06:24:46.441Z,21.51
2017-04-10T06:25:14.835Z,21.51
2017-04-10T06:25:43.188Z,21.5
2017-04-10T06:26:11.554Z,21.44
2017-04-10T06:26:39.819Z,21.47
2017-04-10T06:27:07.914Z,21.45
2017-04-10T06:27:36.110Z,21.48
2017-04-10T06:28:47.503Z,21.48
2017-04-10T06:29:15.783Z,21.47
2017-04-10T06:29:44.170Z,21.47
2017-04-10T06:30:12.489Z,21.47
2017-04-10T06:30:40.834Z,21.5
2017-04-10T06:31:09.130Z,21.47
2017-04-10T06:31:37.291Z,21.5
2017-04-10T06:32:05.658Z,21.47
2017-04-10T06:32:34.031Z,21.43
2017-04-10T06:33:02.393Z,21.41
2017-04-10T06:33:30.774Z,21.5
2017-04-10T06:34:41.883Z,21.45
2017-04-10T06:35:10.167Z,21.48
2017-04-10T06:35:38.553Z,21.48
2017-04-10T06:36:06.873Z,21.45
2017-04-10T06:36:35.212Z,21.4
2017-04-10T06:37:03.598Z,21.43
2017-04-10T06:37:31.947Z,21.48
2017-04-10T06:38:00.312Z,21.44
2017-04-10T06:38:28.389Z,21.44
2017-04-10T06:38:56.480Z,21.44
2017-04-10T06:39:24.770Z,21.44
2017-04-10T06:40:36.159Z,21.45
2017-04-10T06:41:04.349Z,21.44
2017-04-10T06:41:32.733Z,21.47
2017-04-10T06:42:00.956Z,21.47
2017-04-10T06:42:29.297Z,21.45
2017-04-10T06:42:57.494Z,21.47
2017-04-10T06:43:25.744Z,21.5
2017-04-10T06:43:54.109Z,21.45
2017-04-10T06:44:22.469Z,21.45
2017-04-10T06:44:50.650Z,21.47
2017-04-10T06:45:19.033Z,21.4
2017-04-10T06:46:30.142Z,21.45
2017-04-10T06:46:58.522Z,21.48
2017-04-10T06:47:26.904Z,21.41
2017-04-10T06:47:55.035Z,21.5
2017-04-10T06:48:23.190Z,21.48
2017-04-10T06:48:51.575Z,21.43
2017-04-10T06:49:19.921Z,21.48
2017-04-10T06:49:48.191Z,21.47
2017-04-10T06:50:16.362Z,21.47
2017-04-10T06:50:44.634Z,21.44
2017-04-10T06:51:13.020Z,21.41
2017-04-10T06:52:24.412Z,21.5
2017-04-10T06:52:52.783Z,21.51
2017-04-10T06:53:21.167Z,21.51
2017-04-10T06:53:49.483Z,21.44
2017-04-10T06:54:17.827Z,21.43
2017-04-10T06:54:46.125Z,21.47
2017-04-10T06:55:14.285Z,21.48
2017-04-10T06:55:42.651Z,21.47
2017-04-10T06:56:10.835Z,21.44